logo dgac
Jueves 21 de Septiembre del 2017
Buscar por aerodromo o helipuerto
Ingrese nombre de aeródromo, localidad o designador OACI:
METAR del 21-09-2017 a las 23:00 UTC
METAR SCTB 212300Z 23004KT CAVOK 18/04 Q1020
Viento: dirección 230 grados, velocidad 4 nudos
Visibilidad: 10 km o más,
    sin nubes bajo los 5.000 pies o bajo del MSA (Mínimo de Seguridad del Aeródromo),
    sin cumulonimbus, y sin fenómenos de tiempo significativo en el aeródromo o alrededores
Temperatura: 18 °C
Rocío: 4 °C
Humedad_relativa: 39%
Presión: 1020 hPa
METAR del 21-09-2017 a las 22:00 UTC
METAR SCTB 212200Z 23006KT CAVOK 21/05 Q1020
Viento: dirección 230 grados, velocidad 6 nudos
Visibilidad: 10 km o más,
    sin nubes bajo los 5.000 pies o bajo del MSA (Mínimo de Seguridad del Aeródromo),
    sin cumulonimbus, y sin fenómenos de tiempo significativo en el aeródromo o alrededores
Temperatura: 21 °C
Rocío: 5 °C
Humedad_relativa: 35%
Presión: 1020 hPa
METAR del 21-09-2017 a las 21:00 UTC
METAR SCTB 212100Z 25004KT CAVOK 22/01 Q1020
Viento: dirección 250 grados, velocidad 4 nudos
Visibilidad: 10 km o más,
    sin nubes bajo los 5.000 pies o bajo del MSA (Mínimo de Seguridad del Aeródromo),
    sin cumulonimbus, y sin fenómenos de tiempo significativo en el aeródromo o alrededores
Temperatura: 22 °C
Rocío: 1 °C
Humedad_relativa: 25%
Presión: 1020 hPa
METAR del 21-09-2017 a las 21:00 UTC
METAR SCTB 212100Z 25004KT CAVOK 22/01 Q1020
Viento: dirección 250 grados, velocidad 4 nudos
Visibilidad: 10 km o más,
    sin nubes bajo los 5.000 pies o bajo del MSA (Mínimo de Seguridad del Aeródromo),
    sin cumulonimbus, y sin fenómenos de tiempo significativo en el aeródromo o alrededores
Temperatura: 22 °C
Rocío: 1 °C
Humedad_relativa: 25%
Presión: 1020 hPa
METAR del 21-09-2017 a las 20:00 UTC
METAR SCTB 212000Z 21007KT 180V240 CAVOK 23/01 Q1020
Viento: dirección 210 grados, velocidad 7 nudos
Viento con dirección variable entre 180 y 240 grados
Visibilidad: 10 km o más,
    sin nubes bajo los 5.000 pies o bajo del MSA (Mínimo de Seguridad del Aeródromo),
    sin cumulonimbus, y sin fenómenos de tiempo significativo en el aeródromo o alrededores
Temperatura: 23 °C
Rocío: 1 °C
Humedad_relativa: 23%
Presión: 1020 hPa
METAR del 21-09-2017 a las 20:00 UTC
METAR SCTB 212000Z 21007KT 180V240 CAVOK 23/01 Q1020
Viento: dirección 210 grados, velocidad 7 nudos
Viento con dirección variable entre 180 y 240 grados
Visibilidad: 10 km o más,
    sin nubes bajo los 5.000 pies o bajo del MSA (Mínimo de Seguridad del Aeródromo),
    sin cumulonimbus, y sin fenómenos de tiempo significativo en el aeródromo o alrededores
Temperatura: 23 °C
Rocío: 1 °C
Humedad_relativa: 23%
Presión: 1020 hPa
METAR del 21-09-2017 a las 20:00 UTC
METAR SCTB 212000Z 21007KT 180V240 CAVOK 23/01 Q1020
Viento: dirección 210 grados, velocidad 7 nudos
Viento con dirección variable entre 180 y 240 grados
Visibilidad: 10 km o más,
    sin nubes bajo los 5.000 pies o bajo del MSA (Mínimo de Seguridad del Aeródromo),
    sin cumulonimbus, y sin fenómenos de tiempo significativo en el aeródromo o alrededores
Temperatura: 23 °C
Rocío: 1 °C
Humedad_relativa: 23%
Presión: 1020 hPa
METAR del 21-09-2017 a las 19:00 UTC
METAR SCTB 211900Z 21007KT 180V240 CAVOK 22/01 Q1020
Viento: dirección 210 grados, velocidad 7 nudos
Viento con dirección variable entre 180 y 240 grados
Visibilidad: 10 km o más,
    sin nubes bajo los 5.000 pies o bajo del MSA (Mínimo de Seguridad del Aeródromo),
    sin cumulonimbus, y sin fenómenos de tiempo significativo en el aeródromo o alrededores
Temperatura: 22 °C
Rocío: 1 °C
Humedad_relativa: 25%
Presión: 1020 hPa
METAR del 21-09-2017 a las 18:00 UTC
METAR SCTB 211800Z 23006KT 210V270 CAVOK 21/00 Q1020
Viento: dirección 230 grados, velocidad 6 nudos
Viento con dirección variable entre 210 y 270 grados
Visibilidad: 10 km o más,
    sin nubes bajo los 5.000 pies o bajo del MSA (Mínimo de Seguridad del Aeródromo),
    sin cumulonimbus, y sin fenómenos de tiempo significativo en el aeródromo o alrededores
Temperatura: 21 °C
Rocío: 0 °C
Humedad_relativa: 25%
Presión: 1020 hPa
METAR del 21-09-2017 a las 17:00 UTC
METAR SCTB 211700Z 35004KT CAVOK 20/01 Q1021
Viento: dirección 350 grados, velocidad 4 nudos
Visibilidad: 10 km o más,
    sin nubes bajo los 5.000 pies o bajo del MSA (Mínimo de Seguridad del Aeródromo),
    sin cumulonimbus, y sin fenómenos de tiempo significativo en el aeródromo o alrededores
Temperatura: 20 °C
Rocío: 1 °C
Humedad_relativa: 28%
Presión: 1021 hPa